VVDN/DAD METAR and TAF weather

Enter ICAO airport designator
Station Type Date Time Source
VVDN METAR 2019/10/23 07:30 UTC NOAA

VVDN 230730Z 08008KT 8000 FEW015 30/24 Q1008 NOSIG


Station Type Date Time Source
VVDN Decoded METAR 2019/10/23 07:30 UTC NOAA

Da Nang, Vietnam (VVDN) 16-02N 108-11E 7M
Oct 23, 2019 - 03:30 AM EDT / 2019.10.23 0730 UTC
Wind: from the E (080 degrees) at 9 MPH (8 KT):0
Visibility: 4 mile(s):0
Sky conditions: mostly clear
Temperature: 86 F (30 C)
Heat index: 95.0 F (35.0 C):1
Dew Point: 75 F (24 C)
Relative Humidity: 70%
Pressure (altimeter): 29.77 in. Hg (1008 hPa)
ob: VVDN 230730Z 08008KT 8000 FEW015 30/24 Q1008 NOSIG
cycle: 7

Station Type Date Time Source
VVDN TAF 2019/10/23 06:39 UTC NOAA

TAF VVDN 230500Z 2306/2406 09010KT 8000 FEW015
BECMG 2312/2313 23005KT
BECMG 2321/2322 4000 BR
BECMG 2400/2401 8000 NSW

Example: see airport list